sensor_id;sensor_type;location;lat;lon;timestamp;P1;durP1;ratioP1;P2;durP2;ratioP2
5912;SDS011;2982;42.684;23.356;2024-03-07T00:02:18;22.53;;;17.03;;
5912;SDS011;2982;42.684;23.356;2024-03-07T00:04:44;22.63;;;16.55;;
5912;SDS011;2982;42.684;23.356;2024-03-07T00:07:09;22.07;;;17.27;;
5912;SDS011;2982;42.684;23.356;2024-03-07T00:09:35;23.97;;;16.07;;
5912;SDS011;2982;42.684;23.356;2024-03-07T00:12:04;19.13;;;16.48;;
5912;SDS011;2982;42.684;23.356;2024-03-07T00:14:29;26.92;;;16.88;;
5912;SDS011;2982;42.684;23.356;2024-03-07T00:16:56;21.17;;;15.63;;
5912;SDS011;2982;42.684;23.356;2024-03-07T00:19:22;22.35;;;16.30;;
5912;SDS011;2982;42.684;23.356;2024-03-07T00:21:48;20.30;;;15.85;;
5912;SDS011;2982;42.684;23.356;2024-03-07T00:24:13;18.08;;;15.32;;
5912;SDS011;2982;42.684;23.356;2024-03-07T00:26:39;19.67;;;15.80;;
5912;SDS011;2982;42.684;23.356;2024-03-07T00:29:04;22.00;;;15.37;;
5912;SDS011;2982;42.684;23.356;2024-03-07T00:31:30;25.00;;;15.77;;
5912;SDS011;2982;42.684;23.356;2024-03-07T00:33:55;20.85;;;15.88;;
5912;SDS011;2982;42.684;23.356;2024-03-07T00:36:20;19.83;;;15.47;;
5912;SDS011;2982;42.684;23.356;2024-03-07T00:38:46;17.80;;;14.07;;
5912;SDS011;2982;42.684;23.356;2024-03-07T00:41:11;17.77;;;15.27;;
5912;SDS011;2982;42.684;23.356;2024-03-07T00:43:36;20.73;;;14.83;;
5912;SDS011;2982;42.684;23.356;2024-03-07T00:46:02;25.13;;;14.67;;
5912;SDS011;2982;42.684;23.356;2024-03-07T00:48:27;18.00;;;15.10;;
5912;SDS011;2982;42.684;23.356;2024-03-07T00:50:52;18.02;;;13.93;;
5912;SDS011;2982;42.684;23.356;2024-03-07T00:53:18;15.27;;;13.50;;
5912;SDS011;2982;42.684;23.356;2024-03-07T00:58:27;17.60;;;13.87;;
5912;SDS011;2982;42.684;23.356;2024-03-07T01:00:52;19.27;;;13.60;;
5912;SDS011;2982;42.684;23.356;2024-03-07T01:03:18;17.70;;;14.53;;
5912;SDS011;2982;42.684;23.356;2024-03-07T01:05:43;20.60;;;15.30;;
5912;SDS011;2982;42.684;23.356;2024-03-07T01:08:09;21.13;;;14.47;;
5912;SDS011;2982;42.684;23.356;2024-03-07T01:10:34;21.90;;;14.50;;
5912;SDS011;2982;42.684;23.356;2024-03-07T01:12:59;16.17;;;13.80;;
5912;SDS011;2982;42.684;23.356;2024-03-07T01:15:25;21.97;;;12.90;;
5912;SDS011;2982;42.684;23.356;2024-03-07T01:17:50;20.23;;;13.67;;
5912;SDS011;2982;42.684;23.356;2024-03-07T01:20:15;18.73;;;12.40;;
5912;SDS011;2982;42.684;23.356;2024-03-07T01:22:41;17.83;;;14.20;;
5912;SDS011;2982;42.684;23.356;2024-03-07T01:25:06;16.40;;;13.53;;
5912;SDS011;2982;42.684;23.356;2024-03-07T01:27:32;20.27;;;14.27;;
5912;SDS011;2982;42.684;23.356;2024-03-07T01:29:57;17.17;;;13.93;;
5912;SDS011;2982;42.684;23.356;2024-03-07T01:32:23;18.87;;;13.20;;
5912;SDS011;2982;42.684;23.356;2024-03-07T01:34:48;14.13;;;12.23;;
5912;SDS011;2982;42.684;23.356;2024-03-07T01:37:14;18.20;;;13.77;;
5912;SDS011;2982;42.684;23.356;2024-03-07T01:39:39;20.40;;;12.07;;
5912;SDS011;2982;42.684;23.356;2024-03-07T01:42:04;16.37;;;14.07;;
5912;SDS011;2982;42.684;23.356;2024-03-07T01:44:30;16.50;;;13.43;;
5912;SDS011;2982;42.684;23.356;2024-03-07T01:46:55;20.67;;;14.73;;
5912;SDS011;2982;42.684;23.356;2024-03-07T01:49:21;13.73;;;12.27;;
5912;SDS011;2982;42.684;23.356;2024-03-07T01:51:46;16.93;;;13.53;;
5912;SDS011;2982;42.684;23.356;2024-03-07T01:54:11;14.57;;;12.43;;
5912;SDS011;2982;42.684;23.356;2024-03-07T01:56:37;20.03;;;12.87;;
5912;SDS011;2982;42.684;23.356;2024-03-07T01:59:03;20.10;;;14.23;;
5912;SDS011;2982;42.684;23.356;2024-03-07T02:01:31;20.03;;;13.73;;
5912;SDS011;2982;42.684;23.356;2024-03-07T02:03:57;17.27;;;13.33;;
5912;SDS011;2982;42.684;23.356;2024-03-07T02:06:23;21.83;;;13.93;;
5912;SDS011;2982;42.684;23.356;2024-03-07T02:08:49;16.83;;;13.73;;
5912;SDS011;2982;42.684;23.356;2024-03-07T02:11:14;17.30;;;14.07;;
5912;SDS011;2982;42.684;23.356;2024-03-07T02:13:39;17.40;;;13.23;;
5912;SDS011;2982;42.684;23.356;2024-03-07T02:16:05;17.40;;;12.73;;
5912;SDS011;2982;42.684;23.356;2024-03-07T02:18:30;18.30;;;13.50;;
5912;SDS011;2982;42.684;23.356;2024-03-07T02:20:56;16.43;;;12.43;;
5912;SDS011;2982;42.684;23.356;2024-03-07T02:23:21;17.37;;;13.03;;
5912;SDS011;2982;42.684;23.356;2024-03-07T02:25:46;11.20;;;8.70;;
5912;SDS011;2982;42.684;23.356;2024-03-07T02:28:12;7.57;;;6.80;;
5912;SDS011;2982;42.684;23.356;2024-03-07T02:30:37;7.80;;;6.43;;
5912;SDS011;2982;42.684;23.356;2024-03-07T02:33:03;3.73;;;3.43;;
5912;SDS011;2982;42.684;23.356;2024-03-07T02:35:28;2.27;;;2.07;;
5912;SDS011;2982;42.684;23.356;2024-03-07T02:37:53;2.47;;;2.27;;
5912;SDS011;2982;42.684;23.356;2024-03-07T02:40:19;1.57;;;1.47;;
5912;SDS011;2982;42.684;23.356;2024-03-07T02:42:44;2.10;;;2.00;;
5912;SDS011;2982;42.684;23.356;2024-03-07T02:45:09;2.73;;;2.20;;
5912;SDS011;2982;42.684;23.356;2024-03-07T02:47:35;4.70;;;2.40;;
5912;SDS011;2982;42.684;23.356;2024-03-07T02:50:00;3.10;;;2.80;;
5912;SDS011;2982;42.684;23.356;2024-03-07T02:52:25;3.10;;;2.80;;
5912;SDS011;2982;42.684;23.356;2024-03-07T02:54:51;3.13;;;2.03;;
5912;SDS011;2982;42.684;23.356;2024-03-07T02:57:16;1.63;;;1.53;;
5912;SDS011;2982;42.684;23.356;2024-03-07T02:59:41;1.77;;;1.60;;
5912;SDS011;2982;42.684;23.356;2024-03-07T03:02:07;1.60;;;1.50;;
5912;SDS011;2982;42.684;23.356;2024-03-07T03:04:32;2.90;;;2.10;;
5912;SDS011;2982;42.684;23.356;2024-03-07T03:06:58;1.90;;;1.30;;
5912;SDS011;2982;42.684;23.356;2024-03-07T03:09:23;1.80;;;1.57;;
5912;SDS011;2982;42.684;23.356;2024-03-07T03:11:48;0.93;;;0.93;;
5912;SDS011;2982;42.684;23.356;2024-03-07T03:14:14;1.40;;;1.30;;
5912;SDS011;2982;42.684;23.356;2024-03-07T03:16:42;1.30;;;1.20;;
5912;SDS011;2982;42.684;23.356;2024-03-07T03:19:08;4.07;;;1.00;;
5912;SDS011;2982;42.684;23.356;2024-03-07T03:21:33;1.33;;;1.10;;
5912;SDS011;2982;42.684;23.356;2024-03-07T03:23:59;0.73;;;0.63;;
5912;SDS011;2982;42.684;23.356;2024-03-07T03:26:24;1.23;;;0.97;;
5912;SDS011;2982;42.684;23.356;2024-03-07T03:28:49;4.17;;;1.07;;
5912;SDS011;2982;42.684;23.356;2024-03-07T03:31:15;0.60;;;0.60;;
5912;SDS011;2982;42.684;23.356;2024-03-07T03:33:40;0.83;;;0.77;;
5912;SDS011;2982;42.684;23.356;2024-03-07T03:36:05;0.57;;;0.57;;
5912;SDS011;2982;42.684;23.356;2024-03-07T03:38:32;0.77;;;0.63;;
5912;SDS011;2982;42.684;23.356;2024-03-07T03:40:57;1.47;;;0.80;;
5912;SDS011;2982;42.684;23.356;2024-03-07T03:43:22;1.50;;;1.40;;
5912;SDS011;2982;42.684;23.356;2024-03-07T03:45:48;1.75;;;1.63;;
5912;SDS011;2982;42.684;23.356;2024-03-07T03:48:13;1.23;;;1.13;;
5912;SDS011;2982;42.684;23.356;2024-03-07T03:50:39;0.90;;;0.90;;
5912;SDS011;2982;42.684;23.356;2024-03-07T03:53:04;1.13;;;0.90;;
5912;SDS011;2982;42.684;23.356;2024-03-07T03:55:30;1.00;;;0.90;;
5912;SDS011;2982;42.684;23.356;2024-03-07T03:57:55;3.83;;;0.63;;
5912;SDS011;2982;42.684;23.356;2024-03-07T04:00:20;0.77;;;0.50;;
5912;SDS011;2982;42.684;23.356;2024-03-07T04:02:46;0.47;;;0.47;;
5912;SDS011;2982;42.684;23.356;2024-03-07T04:05:11;0.30;;;0.30;;
5912;SDS011;2982;42.684;23.356;2024-03-07T04:07:37;0.63;;;0.63;;
5912;SDS011;2982;42.684;23.356;2024-03-07T04:10:03;1.10;;;0.37;;
5912;SDS011;2982;42.684;23.356;2024-03-07T04:12:29;0.60;;;0.40;;
5912;SDS011;2982;42.684;23.356;2024-03-07T04:14:54;0.20;;;0.20;;
5912;SDS011;2982;42.684;23.356;2024-03-07T04:17:20;0.30;;;0.30;;
5912;SDS011;2982;42.684;23.356;2024-03-07T04:19:45;0.20;;;0.20;;
5912;SDS011;2982;42.684;23.356;2024-03-07T04:22:10;1.10;;;0.43;;
5912;SDS011;2982;42.684;23.356;2024-03-07T04:24:36;0.40;;;0.40;;
5912;SDS011;2982;42.684;23.356;2024-03-07T04:27:02;0.33;;;0.33;;
5912;SDS011;2982;42.684;23.356;2024-03-07T04:29:27;0.30;;;0.30;;
5912;SDS011;2982;42.684;23.356;2024-03-07T04:31:53;0.40;;;0.40;;
5912;SDS011;2982;42.684;23.356;2024-03-07T04:34:18;0.50;;;0.50;;
5912;SDS011;2982;42.684;23.356;2024-03-07T04:36:43;0.40;;;0.40;;
5912;SDS011;2982;42.684;23.356;2024-03-07T04:39:09;0.80;;;0.50;;
5912;SDS011;2982;42.684;23.356;2024-03-07T04:41:34;0.60;;;0.60;;
5912;SDS011;2982;42.684;23.356;2024-03-07T04:44:00;0.60;;;0.60;;
5912;SDS011;2982;42.684;23.356;2024-03-07T04:46:25;0.70;;;0.60;;
5912;SDS011;2982;42.684;23.356;2024-03-07T04:48:50;4.00;;;0.97;;
5912;SDS011;2982;42.684;23.356;2024-03-07T04:51:15;2.93;;;1.13;;
5912;SDS011;2982;42.684;23.356;2024-03-07T04:53:41;0.83;;;0.83;;
5912;SDS011;2982;42.684;23.356;2024-03-07T04:56:06;1.30;;;1.10;;
5912;SDS011;2982;42.684;23.356;2024-03-07T04:58:31;1.20;;;1.10;;
5912;SDS011;2982;42.684;23.356;2024-03-07T05:00:57;1.97;;;1.27;;
5912;SDS011;2982;42.684;23.356;2024-03-07T05:03:22;5.53;;;1.30;;
5912;SDS011;2982;42.684;23.356;2024-03-07T05:05:47;2.33;;;1.57;;
5912;SDS011;2982;42.684;23.356;2024-03-07T05:08:13;1.37;;;1.27;;
5912;SDS011;2982;42.684;23.356;2024-03-07T05:10:38;1.50;;;1.40;;
5912;SDS011;2982;42.684;23.356;2024-03-07T05:13:05;1.80;;;1.70;;
5912;SDS011;2982;42.684;23.356;2024-03-07T05:15:31;1.43;;;1.33;;
5912;SDS011;2982;42.684;23.356;2024-03-07T05:17:56;2.00;;;1.90;;
5912;SDS011;2982;42.684;23.356;2024-03-07T05:20:21;2.17;;;2.00;;
5912;SDS011;2982;42.684;23.356;2024-03-07T05:22:47;6.67;;;1.60;;
5912;SDS011;2982;42.684;23.356;2024-03-07T05:25:12;1.73;;;1.63;;
5912;SDS011;2982;42.684;23.356;2024-03-07T05:27:37;2.10;;;1.90;;
5912;SDS011;2982;42.684;23.356;2024-03-07T05:30:03;1.77;;;1.67;;
5912;SDS011;2982;42.684;23.356;2024-03-07T05:32:29;2.60;;;2.40;;
5912;SDS011;2982;42.684;23.356;2024-03-07T05:34:54;2.80;;;2.60;;
5912;SDS011;2982;42.684;23.356;2024-03-07T05:37:20;3.33;;;2.87;;
5912;SDS011;2982;42.684;23.356;2024-03-07T05:39:47;2.93;;;2.63;;
5912;SDS011;2982;42.684;23.356;2024-03-07T05:42:13;2.70;;;2.50;;
5912;SDS011;2982;42.684;23.356;2024-03-07T05:44:38;3.53;;;3.13;;
5912;SDS011;2982;42.684;23.356;2024-03-07T05:47:04;2.93;;;2.73;;
5912;SDS011;2982;42.684;23.356;2024-03-07T05:49:29;3.43;;;3.13;;
5912;SDS011;2982;42.684;23.356;2024-03-07T05:51:56;4.30;;;3.20;;
5912;SDS011;2982;42.684;23.356;2024-03-07T05:54:21;4.10;;;3.03;;
5912;SDS011;2982;42.684;23.356;2024-03-07T05:56:47;3.47;;;3.13;;
5912;SDS011;2982;42.684;23.356;2024-03-07T05:59:12;3.30;;;3.10;;
5912;SDS011;2982;42.684;23.356;2024-03-07T06:01:37;4.60;;;4.27;;
5912;SDS011;2982;42.684;23.356;2024-03-07T06:04:05;4.10;;;3.67;;
5912;SDS011;2982;42.684;23.356;2024-03-07T06:06:31;3.57;;;3.27;;
5912;SDS011;2982;42.684;23.356;2024-03-07T06:08:57;3.80;;;3.50;;
5912;SDS011;2982;42.684;23.356;2024-03-07T06:11:23;3.90;;;3.60;;
5912;SDS011;2982;42.684;23.356;2024-03-07T06:13:48;8.73;;;4.83;;
5912;SDS011;2982;42.684;23.356;2024-03-07T06:16:14;3.50;;;3.30;;
5912;SDS011;2982;42.684;23.356;2024-03-07T06:18:41;9.40;;;6.77;;
5912;SDS011;2982;42.684;23.356;2024-03-07T06:21:06;7.23;;;6.00;;
5912;SDS011;2982;42.684;23.356;2024-03-07T06:23:32;3.60;;;3.40;;
5912;SDS011;2982;42.684;23.356;2024-03-07T06:25:57;4.03;;;3.73;;
5912;SDS011;2982;42.684;23.356;2024-03-07T06:28:23;4.83;;;4.43;;
5912;SDS011;2982;42.684;23.356;2024-03-07T06:30:48;4.70;;;4.13;;
5912;SDS011;2982;42.684;23.356;2024-03-07T06:33:14;3.57;;;3.37;;
5912;SDS011;2982;42.684;23.356;2024-03-07T06:35:40;3.90;;;3.60;;
5912;SDS011;2982;42.684;23.356;2024-03-07T06:38:06;4.40;;;3.63;;
5912;SDS011;2982;42.684;23.356;2024-03-07T06:40:32;3.83;;;3.57;;
5912;SDS011;2982;42.684;23.356;2024-03-07T06:43:00;2.77;;;2.57;;
5912;SDS011;2982;42.684;23.356;2024-03-07T06:45:26;4.43;;;3.33;;
5912;SDS011;2982;42.684;23.356;2024-03-07T06:47:51;2.80;;;2.60;;
5912;SDS011;2982;42.684;23.356;2024-03-07T06:50:17;2.67;;;2.47;;
5912;SDS011;2982;42.684;23.356;2024-03-07T06:52:42;2.73;;;2.53;;
5912;SDS011;2982;42.684;23.356;2024-03-07T06:55:08;3.00;;;2.80;;
5912;SDS011;2982;42.684;23.356;2024-03-07T06:57:33;2.80;;;2.60;;
5912;SDS011;2982;42.684;23.356;2024-03-07T06:59:59;2.53;;;2.33;;
5912;SDS011;2982;42.684;23.356;2024-03-07T07:02:24;2.87;;;2.47;;
5912;SDS011;2982;42.684;23.356;2024-03-07T07:04:49;2.83;;;2.47;;
5912;SDS011;2982;42.684;23.356;2024-03-07T07:07:15;2.63;;;2.43;;
5912;SDS011;2982;42.684;23.356;2024-03-07T07:09:40;3.13;;;2.93;;
5912;SDS011;2982;42.684;23.356;2024-03-07T07:12:06;2.97;;;2.77;;
5912;SDS011;2982;42.684;23.356;2024-03-07T07:14:32;2.97;;;2.77;;
5912;SDS011;2982;42.684;23.356;2024-03-07T07:16:58;6.83;;;3.10;;
5912;SDS011;2982;42.684;23.356;2024-03-07T07:19:23;3.40;;;3.10;;
5912;SDS011;2982;42.684;23.356;2024-03-07T07:21:48;4.67;;;4.27;;
5912;SDS011;2982;42.684;23.356;2024-03-07T07:24:14;4.13;;;3.53;;
5912;SDS011;2982;42.684;23.356;2024-03-07T07:26:39;4.70;;;4.30;;
5912;SDS011;2982;42.684;23.356;2024-03-07T07:29:04;3.80;;;3.17;;
5912;SDS011;2982;42.684;23.356;2024-03-07T07:31:30;3.40;;;2.80;;
5912;SDS011;2982;42.684;23.356;2024-03-07T07:33:55;3.23;;;2.93;;
5912;SDS011;2982;42.684;23.356;2024-03-07T07:36:20;3.50;;;2.60;;
5912;SDS011;2982;42.684;23.356;2024-03-07T07:38:46;3.77;;;3.47;;
5912;SDS011;2982;42.684;23.356;2024-03-07T07:41:12;3.22;;;2.92;;
5912;SDS011;2982;42.684;23.356;2024-03-07T07:43:39;2.97;;;2.53;;
5912;SDS011;2982;42.684;23.356;2024-03-07T07:46:05;2.88;;;2.63;;
5912;SDS011;2982;42.684;23.356;2024-03-07T07:48:30;2.78;;;2.58;;
5912;SDS011;2982;42.684;23.356;2024-03-07T07:50:55;2.28;;;1.58;;
5912;SDS011;2982;42.684;23.356;2024-03-07T07:53:21;2.27;;;2.07;;
5912;SDS011;2982;42.684;23.356;2024-03-07T07:55:46;2.38;;;1.90;;
5912;SDS011;2982;42.684;23.356;2024-03-07T07:58:11;1.80;;;1.70;;
5912;SDS011;2982;42.684;23.356;2024-03-07T08:00:38;2.00;;;1.90;;
5912;SDS011;2982;42.684;23.356;2024-03-07T08:03:04;2.08;;;1.88;;
5912;SDS011;2982;42.684;23.356;2024-03-07T08:05:31;2.00;;;1.80;;
5912;SDS011;2982;42.684;23.356;2024-03-07T08:07:58;2.05;;;1.92;;
5912;SDS011;2982;42.684;23.356;2024-03-07T08:10:26;1.90;;;1.80;;
5912;SDS011;2982;42.684;23.356;2024-03-07T08:12:56;5.70;;;1.97;;
5912;SDS011;2982;42.684;23.356;2024-03-07T08:15:30;1.70;;;1.60;;
5912;SDS011;2982;42.684;23.356;2024-03-07T08:17:56;1.52;;;1.42;;
5912;SDS011;2982;42.684;23.356;2024-03-07T08:20:23;1.20;;;1.10;;
5912;SDS011;2982;42.684;23.356;2024-03-07T08:22:51;1.10;;;1.00;;
5912;SDS011;2982;42.684;23.356;2024-03-07T08:25:19;0.98;;;0.98;;
5912;SDS011;2982;42.684;23.356;2024-03-07T08:27:46;2.13;;;1.15;;
5912;SDS011;2982;42.684;23.356;2024-03-07T08:30:13;1.20;;;1.10;;
5912;SDS011;2982;42.684;23.356;2024-03-07T08:32:40;0.77;;;0.77;;
5912;SDS011;2982;42.684;23.356;2024-03-07T08:35:06;1.17;;;1.10;;
5912;SDS011;2982;42.684;23.356;2024-03-07T08:37:35;1.10;;;1.10;;
5912;SDS011;2982;42.684;23.356;2024-03-07T08:40:01;1.20;;;1.10;;
5912;SDS011;2982;42.684;23.356;2024-03-07T08:42:27;0.93;;;0.90;;
5912;SDS011;2982;42.684;23.356;2024-03-07T08:44:52;0.73;;;0.73;;
5912;SDS011;2982;42.684;23.356;2024-03-07T08:47:18;0.90;;;0.90;;
5912;SDS011;2982;42.684;23.356;2024-03-07T08:49:43;1.92;;;1.30;;
5912;SDS011;2982;42.684;23.356;2024-03-07T08:52:08;1.65;;;1.55;;
5912;SDS011;2982;42.684;23.356;2024-03-07T08:54:34;1.13;;;1.08;;
5912;SDS011;2982;42.684;23.356;2024-03-07T08:56:59;2.50;;;2.30;;
5912;SDS011;2982;42.684;23.356;2024-03-07T08:59:24;5.70;;;5.07;;
5912;SDS011;2982;42.684;23.356;2024-03-07T09:01:50;1.80;;;1.70;;
5912;SDS011;2982;42.684;23.356;2024-03-07T09:04:16;1.40;;;1.30;;
5912;SDS011;2982;42.684;23.356;2024-03-07T09:06:42;1.20;;;1.10;;
5912;SDS011;2982;42.684;23.356;2024-03-07T09:09:07;2.95;;;1.55;;
5912;SDS011;2982;42.684;23.356;2024-03-07T09:11:32;4.40;;;1.98;;
5912;SDS011;2982;42.684;23.356;2024-03-07T09:14:02;3.03;;;2.38;;
5912;SDS011;2982;42.684;23.356;2024-03-07T09:16:27;1.90;;;1.80;;
5912;SDS011;2982;42.684;23.356;2024-03-07T09:18:53;1.42;;;1.33;;
5912;SDS011;2982;42.684;23.356;2024-03-07T09:21:18;1.90;;;1.80;;
5912;SDS011;2982;42.684;23.356;2024-03-07T09:23:43;2.13;;;1.88;;
5912;SDS011;2982;42.684;23.356;2024-03-07T09:26:09;3.00;;;2.70;;
5912;SDS011;2982;42.684;23.356;2024-03-07T09:28:34;2.13;;;2.03;;
5912;SDS011;2982;42.684;23.356;2024-03-07T09:31:00;1.65;;;1.52;;
5912;SDS011;2982;42.684;23.356;2024-03-07T09:33:25;1.40;;;1.30;;
5912;SDS011;2982;42.684;23.356;2024-03-07T09:35:50;1.52;;;1.40;;
5912;SDS011;2982;42.684;23.356;2024-03-07T09:38:16;1.90;;;1.73;;
5912;SDS011;2982;42.684;23.356;2024-03-07T09:40:41;1.75;;;1.50;;
5912;SDS011;2982;42.684;23.356;2024-03-07T09:43:07;2.15;;;2.05;;
5912;SDS011;2982;42.684;23.356;2024-03-07T09:45:32;3.92;;;3.63;;
5912;SDS011;2982;42.684;23.356;2024-03-07T09:47:59;14.23;;;10.02;;
5912;SDS011;2982;42.684;23.356;2024-03-07T09:50:25;3.40;;;3.13;;
5912;SDS011;2982;42.684;23.356;2024-03-07T09:52:53;2.08;;;1.98;;
5912;SDS011;2982;42.684;23.356;2024-03-07T09:55:20;1.85;;;1.75;;
5912;SDS011;2982;42.684;23.356;2024-03-07T09:57:48;3.45;;;3.25;;
5912;SDS011;2982;42.684;23.356;2024-03-07T10:00:16;2.10;;;1.85;;
5912;SDS011;2982;42.684;23.356;2024-03-07T10:02:43;1.95;;;1.85;;
5912;SDS011;2982;42.684;23.356;2024-03-07T10:05:09;1.90;;;1.80;;
5912;SDS011;2982;42.684;23.356;2024-03-07T10:07:39;1.80;;;1.70;;
5912;SDS011;2982;42.684;23.356;2024-03-07T10:10:04;2.40;;;2.30;;
5912;SDS011;2982;42.684;23.356;2024-03-07T10:12:30;3.17;;;2.25;;
5912;SDS011;2982;42.684;23.356;2024-03-07T10:14:55;2.13;;;2.03;;
5912;SDS011;2982;42.684;23.356;2024-03-07T10:17:23;2.20;;;2.10;;
5912;SDS011;2982;42.684;23.356;2024-03-07T10:19:49;2.58;;;2.47;;
5912;SDS011;2982;42.684;23.356;2024-03-07T10:22:15;2.30;;;2.10;;
5912;SDS011;2982;42.684;23.356;2024-03-07T10:24:43;2.40;;;2.20;;
5912;SDS011;2982;42.684;23.356;2024-03-07T10:27:14;2.53;;;2.33;;
5912;SDS011;2982;42.684;23.356;2024-03-07T10:29:43;2.97;;;2.10;;
5912;SDS011;2982;42.684;23.356;2024-03-07T10:32:12;3.17;;;2.10;;
5912;SDS011;2982;42.684;23.356;2024-03-07T10:34:37;5.00;;;2.70;;
5912;SDS011;2982;42.684;23.356;2024-03-07T10:37:04;2.13;;;1.77;;
5912;SDS011;2982;42.684;23.356;2024-03-07T10:39:29;2.45;;;2.30;;
5912;SDS011;2982;42.684;23.356;2024-03-07T10:41:59;2.22;;;2.03;;
5912;SDS011;2982;42.684;23.356;2024-03-07T10:44:28;4.32;;;2.17;;
5912;SDS011;2982;42.684;23.356;2024-03-07T10:46:55;3.33;;;1.83;;
5912;SDS011;2982;42.684;23.356;2024-03-07T10:49:21;1.83;;;1.73;;
5912;SDS011;2982;42.684;23.356;2024-03-07T10:52:33;1.70;;;1.58;;
5912;SDS011;2982;42.684;23.356;2024-03-07T10:59:50;1.90;;;1.38;;
5912;SDS011;2982;42.684;23.356;2024-03-07T11:05:28;2.47;;;1.95;;
5912;SDS011;2982;42.684;23.356;2024-03-07T11:08:22;2.17;;;2.08;;
5912;SDS011;2982;42.684;23.356;2024-03-07T11:11:13;10.90;;;2.22;;
5912;SDS011;2982;42.684;23.356;2024-03-07T11:14:00;2.22;;;1.92;;
5912;SDS011;2982;42.684;23.356;2024-03-07T11:16:26;2.55;;;2.08;;
5912;SDS011;2982;42.684;23.356;2024-03-07T11:21:57;3.63;;;3.30;;
5912;SDS011;2982;42.684;23.356;2024-03-07T11:24:30;2.35;;;2.22;;
5912;SDS011;2982;42.684;23.356;2024-03-07T11:26:57;2.88;;;2.63;;
5912;SDS011;2982;42.684;23.356;2024-03-07T11:32:13;3.50;;;3.05;;
5912;SDS011;2982;42.684;23.356;2024-03-07T11:34:40;4.53;;;2.85;;
5912;SDS011;2982;42.684;23.356;2024-03-07T11:37:07;2.83;;;2.63;;
5912;SDS011;2982;42.684;23.356;2024-03-07T11:39:46;3.35;;;3.00;;
5912;SDS011;2982;42.684;23.356;2024-03-07T11:42:25;3.10;;;2.85;;
5912;SDS011;2982;42.684;23.356;2024-03-07T11:45:01;3.80;;;2.55;;
5912;SDS011;2982;42.684;23.356;2024-03-07T11:47:38;3.67;;;3.38;;
5912;SDS011;2982;42.684;23.356;2024-03-07T11:50:38;2.38;;;2.17;;
5912;SDS011;2982;42.684;23.356;2024-03-07T11:53:07;4.32;;;2.50;;
5912;SDS011;2982;42.684;23.356;2024-03-07T11:55:40;3.00;;;2.80;;
5912;SDS011;2982;42.684;23.356;2024-03-07T11:58:05;3.70;;;3.50;;
5912;SDS011;2982;42.684;23.356;2024-03-07T12:00:33;3.60;;;2.45;;
5912;SDS011;2982;42.684;23.356;2024-03-07T12:03:09;3.17;;;2.75;;
5912;SDS011;2982;42.684;23.356;2024-03-07T12:05:36;2.53;;;2.33;;
5912;SDS011;2982;42.684;23.356;2024-03-07T12:08:04;3.10;;;2.53;;
5912;SDS011;2982;42.684;23.356;2024-03-07T12:10:29;4.45;;;2.42;;
5912;SDS011;2982;42.684;23.356;2024-03-07T12:12:55;3.22;;;2.53;;
5912;SDS011;2982;42.684;23.356;2024-03-07T12:15:24;2.55;;;2.35;;
5912;SDS011;2982;42.684;23.356;2024-03-07T12:17:50;3.00;;;2.10;;
5912;SDS011;2982;42.684;23.356;2024-03-07T12:20:17;3.88;;;2.25;;
5912;SDS011;2982;42.684;23.356;2024-03-07T12:22:43;4.63;;;2.50;;
5912;SDS011;2982;42.684;23.356;2024-03-07T12:25:08;4.13;;;3.05;;
5912;SDS011;2982;42.684;23.356;2024-03-07T12:27:33;6.43;;;2.67;;
5912;SDS011;2982;42.684;23.356;2024-03-07T12:29:59;2.65;;;2.45;;
5912;SDS011;2982;42.684;23.356;2024-03-07T12:32:25;3.55;;;3.25;;
5912;SDS011;2982;42.684;23.356;2024-03-07T12:34:50;3.30;;;3.00;;
5912;SDS011;2982;42.684;23.356;2024-03-07T12:37:15;3.28;;;3.08;;
5912;SDS011;2982;42.684;23.356;2024-03-07T12:39:42;3.65;;;3.35;;
5912;SDS011;2982;42.684;23.356;2024-03-07T12:42:09;5.35;;;3.15;;
5912;SDS011;2982;42.684;23.356;2024-03-07T12:44:44;4.60;;;4.30;;
5912;SDS011;2982;42.684;23.356;2024-03-07T12:47:10;4.43;;;4.05;;
5912;SDS011;2982;42.684;23.356;2024-03-07T12:49:36;6.00;;;4.75;;
5912;SDS011;2982;42.684;23.356;2024-03-07T12:52:02;4.45;;;4.15;;
5912;SDS011;2982;42.684;23.356;2024-03-07T12:54:27;5.13;;;4.72;;
5912;SDS011;2982;42.684;23.356;2024-03-07T12:56:52;5.20;;;3.90;;
5912;SDS011;2982;42.684;23.356;2024-03-07T12:59:18;5.35;;;4.82;;
5912;SDS011;2982;42.684;23.356;2024-03-07T13:01:43;8.48;;;5.00;;
5912;SDS011;2982;42.684;23.356;2024-03-07T13:04:09;5.22;;;4.18;;
5912;SDS011;2982;42.684;23.356;2024-03-07T13:06:35;6.85;;;5.03;;
5912;SDS011;2982;42.684;23.356;2024-03-07T13:09:01;4.85;;;4.45;;
5912;SDS011;2982;42.684;23.356;2024-03-07T13:11:26;5.97;;;4.22;;
5912;SDS011;2982;42.684;23.356;2024-03-07T13:13:52;5.38;;;4.88;;
5912;SDS011;2982;42.684;23.356;2024-03-07T13:16:17;3.45;;;3.15;;
5912;SDS011;2982;42.684;23.356;2024-03-07T13:18:44;4.57;;;4.28;;
5912;SDS011;2982;42.684;23.356;2024-03-07T13:21:09;5.55;;;5.05;;
5912;SDS011;2982;42.684;23.356;2024-03-07T13:23:35;4.32;;;3.58;;
5912;SDS011;2982;42.684;23.356;2024-03-07T13:26:01;6.57;;;3.72;;
5912;SDS011;2982;42.684;23.356;2024-03-07T13:28:29;2.85;;;2.65;;
5912;SDS011;2982;42.684;23.356;2024-03-07T13:30:54;5.65;;;3.95;;
5912;SDS011;2982;42.684;23.356;2024-03-07T13:33:20;6.53;;;4.32;;
5912;SDS011;2982;42.684;23.356;2024-03-07T13:35:45;7.38;;;3.75;;
5912;SDS011;2982;42.684;23.356;2024-03-07T13:38:11;3.47;;;3.10;;
5912;SDS011;2982;42.684;23.356;2024-03-07T13:40:36;3.53;;;3.17;;
5912;SDS011;2982;42.684;23.356;2024-03-07T13:43:02;2.67;;;2.47;;
5912;SDS011;2982;42.684;23.356;2024-03-07T13:45:30;3.75;;;3.30;;
5912;SDS011;2982;42.684;23.356;2024-03-07T13:47:56;3.70;;;3.40;;
5912;SDS011;2982;42.684;23.356;2024-03-07T14:03:29;3.97;;;3.67;;
5912;SDS011;2982;42.684;23.356;2024-03-07T14:06:07;6.22;;;3.35;;
5912;SDS011;2982;42.684;23.356;2024-03-07T14:14:49;4.63;;;3.80;;
5912;SDS011;2982;42.684;23.356;2024-03-07T14:28:32;3.95;;;3.50;;
5912;SDS011;2982;42.684;23.356;2024-03-07T14:31:03;4.40;;;4.05;;
5912;SDS011;2982;42.684;23.356;2024-03-07T14:33:29;6.10;;;4.47;;
5912;SDS011;2982;42.684;23.356;2024-03-07T14:35:58;5.95;;;4.32;;
5912;SDS011;2982;42.684;23.356;2024-03-07T14:41:04;5.35;;;4.38;;
5912;SDS011;2982;42.684;23.356;2024-03-07T14:43:30;5.60;;;5.05;;
5912;SDS011;2982;42.684;23.356;2024-03-07T14:45:55;4.75;;;4.45;;
5912;SDS011;2982;42.684;23.356;2024-03-07T14:48:20;7.95;;;4.43;;
5912;SDS011;2982;42.684;23.356;2024-03-07T14:50:46;5.40;;;4.50;;
5912;SDS011;2982;42.684;23.356;2024-03-07T14:53:12;5.40;;;4.87;;
5912;SDS011;2982;42.684;23.356;2024-03-07T14:55:39;6.88;;;4.95;;
5912;SDS011;2982;42.684;23.356;2024-03-07T14:58:06;7.30;;;6.55;;
5912;SDS011;2982;42.684;23.356;2024-03-07T15:00:31;6.47;;;5.87;;
5912;SDS011;2982;42.684;23.356;2024-03-07T15:02:59;8.80;;;7.22;;
5912;SDS011;2982;42.684;23.356;2024-03-07T15:05:25;8.20;;;7.13;;
5912;SDS011;2982;42.684;23.356;2024-03-07T15:07:51;7.20;;;6.57;;
5912;SDS011;2982;42.684;23.356;2024-03-07T15:10:28;7.45;;;6.53;;
5912;SDS011;2982;42.684;23.356;2024-03-07T15:13:00;8.60;;;7.70;;
5912;SDS011;2982;42.684;23.356;2024-03-07T15:15:30;8.53;;;7.00;;
5912;SDS011;2982;42.684;23.356;2024-03-07T15:17:55;7.43;;;6.70;;
5912;SDS011;2982;42.684;23.356;2024-03-07T15:20:20;8.67;;;7.80;;
5912;SDS011;2982;42.684;23.356;2024-03-07T15:22:46;11.20;;;7.00;;
5912;SDS011;2982;42.684;23.356;2024-03-07T15:25:12;8.67;;;7.33;;
5912;SDS011;2982;42.684;23.356;2024-03-07T15:27:41;7.63;;;6.83;;
5912;SDS011;2982;42.684;23.356;2024-03-07T15:30:06;10.90;;;8.15;;
5912;SDS011;2982;42.684;23.356;2024-03-07T15:32:32;10.80;;;8.13;;
5912;SDS011;2982;42.684;23.356;2024-03-07T15:34:57;11.50;;;8.53;;
5912;SDS011;2982;42.684;23.356;2024-03-07T15:37:23;12.17;;;8.67;;
5912;SDS011;2982;42.684;23.356;2024-03-07T15:39:48;10.00;;;9.00;;
5912;SDS011;2982;42.684;23.356;2024-03-07T15:42:13;11.83;;;9.10;;